ěÝzenÝ letovÚho provozu ╚eskÚ republiky
Letiste: LKKB Aktualizace: 29.05.2023 15:59:38  UTC
 METAR LKKB 29.05. 16:00 ...
METAR LKKB 291600Z 32007KT 290V010 CAVOK 23/05 Q1018 NOSIG RMK BLU BLU=
 TAF LKKB 29.05. 11:00 ...
TAF LKKB 291100Z 2912/3012 02007KT CAVOK      BECMG 2920/2922 VRB02KT      BECMG 3005/3007 02007KT=